DAL564 KLBB-KSAT
Flight info
| Callsign | DAL564 |
|---|---|
| Flight time | N/A |
| Altitude | 39000 |
| Route | BGS SJT JCT CSI3 |
| Aircraft | A319/M-SDE3FGHIRWY/LB1 |
Departure
| Time | 2026-04-23 22:23 |
|---|---|
| Airport | Lubbock Preston Smith International Airport (KLBB) |
Arrival
| Time | N/A |
|---|---|
| Airport | San Antonio International Airport (KSAT) |
| Time | Latitude | Longitude | Altitude | Speed | Heading |
|---|---|---|---|---|---|
| 2026-04-23 21:39 | 33.65684 | -101.82307 | 3293 ft | 0 kts | 175° |
| 2026-04-23 22:04 | 33.65694 | -101.82308 | 3321 ft | 4 kts | 175° |
| 2026-04-23 22:04 | 33.65716 | -101.82310 | 3290 ft | 4 kts | 167° |
| 2026-04-23 22:04 | 33.65737 | -101.82323 | 3293 ft | 4 kts | 115° |
| 2026-04-23 22:04 | 33.65738 | -101.82348 | 3293 ft | 4 kts | 50° |
| 2026-04-23 22:05 | 33.65735 | -101.82353 | 3293 ft | 0 kts | 43° |
| 2026-04-23 22:07 | 33.65740 | -101.82347 | 3293 ft | 4 kts | 43° |
| 2026-04-23 22:07 | 33.65771 | -101.82313 | 3293 ft | 8 kts | 39° |
| 2026-04-23 22:07 | 33.65835 | -101.82322 | 3293 ft | 14 kts | 331° |
| 2026-04-23 22:08 | 33.65927 | -101.82375 | 3293 ft | 15 kts | 343° |
| 2026-04-23 22:08 | 33.66022 | -101.82365 | 3293 ft | 14 kts | 47° |
| 2026-04-23 22:08 | 33.66033 | -101.82256 | 3293 ft | 13 kts | 89° |
| 2026-04-23 22:08 | 33.66033 | -101.82138 | 3293 ft | 17 kts | 89° |
| 2026-04-23 22:09 | 33.66034 | -101.81975 | 3293 ft | 21 kts | 89° |
| 2026-04-23 22:09 | 33.66035 | -101.81801 | 3293 ft | 20 kts | 89° |
| 2026-04-23 22:09 | 33.66037 | -101.81634 | 3293 ft | 20 kts | 90° |
| 2026-04-23 22:09 | 33.66037 | -101.81471 | 3293 ft | 20 kts | 90° |
| 2026-04-23 22:10 | 33.66038 | -101.81308 | 3293 ft | 19 kts | 89° |
| 2026-04-23 22:10 | 33.66039 | -101.81145 | 3293 ft | 19 kts | 91° |
| 2026-04-23 22:10 | 33.66039 | -101.80988 | 3293 ft | 19 kts | 90° |
| 2026-04-23 22:10 | 33.66039 | -101.80831 | 3293 ft | 19 kts | 89° |
| 2026-04-23 22:11 | 33.66040 | -101.80676 | 3293 ft | 18 kts | 89° |
| 2026-04-23 22:11 | 33.66042 | -101.80525 | 3293 ft | 18 kts | 89° |
| 2026-04-23 22:11 | 33.66043 | -101.80375 | 3293 ft | 18 kts | 89° |
| 2026-04-23 22:11 | 33.66044 | -101.80229 | 3293 ft | 17 kts | 89° |
| 2026-04-23 22:12 | 33.66045 | -101.80076 | 3293 ft | 21 kts | 90° |
| 2026-04-23 22:12 | 33.66046 | -101.79878 | 3293 ft | 24 kts | 90° |
| 2026-04-23 22:12 | 33.66050 | -101.79713 | 3293 ft | 15 kts | 73° |
| 2026-04-23 22:12 | 33.66111 | -101.79682 | 3293 ft | 8 kts | 357° |
| 2026-04-23 22:13 | 33.66133 | -101.79683 | 3293 ft | 0 kts | 357° |
| 2026-04-23 22:20 | 33.66134 | -101.79683 | 3294 ft | 1 kts | 357° |
| 2026-04-23 22:20 | 33.66160 | -101.79685 | 3294 ft | 7 kts | 357° |
| 2026-04-23 22:21 | 33.66219 | -101.79691 | 3294 ft | 9 kts | 335° |
| 2026-04-23 22:21 | 33.66234 | -101.79749 | 3294 ft | 1 kts | 269° |
| 2026-04-23 22:21 | 33.66234 | -101.79750 | 3294 ft | 0 kts | 269° |
| 2026-04-23 22:22 | 33.66234 | -101.79753 | 3294 ft | 3 kts | 269° |
| 2026-04-23 22:22 | 33.66231 | -101.80058 | 3295 ft | 72 kts | 269° |
| 2026-04-23 22:22 | 33.66228 | -101.80911 | 3292 ft | 129 kts | 269° |
| 2026-04-23 22:23 | 33.66227 | -101.82159 | 3414 ft | 163 kts | 268° |
| 2026-04-23 22:23 | 33.66248 | -101.83554 | 3957 ft | 170 kts | 268° |
| 2026-04-23 22:23 | 33.66280 | -101.84987 | 4537 ft | 174 kts | 268° |
| 2026-04-23 22:23 | 33.66307 | -101.86458 | 5064 ft | 182 kts | 267° |
| 2026-04-23 22:24 | 33.65900 | -101.87955 | 5263 ft | 203 kts | 232° |
| 2026-04-23 22:24 | 33.64678 | -101.88985 | 5496 ft | 233 kts | 198° |
| 2026-04-23 22:24 | 33.62970 | -101.89140 | 5848 ft | 261 kts | 179° |
| 2026-04-23 22:24 | 33.61133 | -101.88706 | 6465 ft | 275 kts | 167° |
| 2026-04-23 22:25 | 33.59282 | -101.88086 | 7322 ft | 278 kts | 167° |
| 2026-04-23 22:25 | 33.57404 | -101.87466 | 8202 ft | 282 kts | 167° |
| 2026-04-23 22:25 | 33.55506 | -101.86843 | 9102 ft | 284 kts | 168° |
| 2026-04-23 22:25 | 33.53589 | -101.86214 | 9945 ft | 290 kts | 168° |
| 2026-04-23 22:26 | 33.51572 | -101.85557 | 10283 ft | 312 kts | 168° |
| 2026-04-23 22:26 | 33.49432 | -101.84857 | 10882 ft | 323 kts | 169° |
| 2026-04-23 22:26 | 33.47250 | -101.84136 | 11596 ft | 329 kts | 169° |
| 2026-04-23 22:26 | 33.45012 | -101.83390 | 12333 ft | 336 kts | 170° |
| 2026-04-23 22:27 | 33.42745 | -101.82634 | 13074 ft | 342 kts | 170° |
| 2026-04-23 22:27 | 33.40431 | -101.81863 | 13758 ft | 348 kts | 171° |
| 2026-04-23 22:27 | 33.38085 | -101.81085 | 14435 ft | 351 kts | 170° |
| 2026-04-23 22:27 | 33.35728 | -101.80300 | 15173 ft | 354 kts | 170° |
| 2026-04-23 22:28 | 33.33340 | -101.79500 | 15869 ft | 358 kts | 171° |
| 2026-04-23 22:28 | 33.30927 | -101.78697 | 16559 ft | 362 kts | 171° |
| 2026-04-23 22:28 | 33.28484 | -101.77886 | 17249 ft | 366 kts | 171° |
| 2026-04-23 22:28 | 33.26018 | -101.77072 | 17937 ft | 370 kts | 172° |
| 2026-04-23 22:29 | 33.23516 | -101.76242 | 18530 ft | 374 kts | 172° |
| 2026-04-23 22:29 | 33.20993 | -101.75406 | 19127 ft | 378 kts | 172° |
| 2026-04-23 22:29 | 33.18447 | -101.74563 | 19734 ft | 382 kts | 172° |
| 2026-04-23 22:29 | 33.15873 | -101.73713 | 20358 ft | 385 kts | 172° |
| 2026-04-23 22:30 | 33.13276 | -101.72856 | 20949 ft | 389 kts | 172° |
| 2026-04-23 22:30 | 33.10656 | -101.71992 | 21509 ft | 393 kts | 172° |
| 2026-04-23 22:30 | 33.08008 | -101.71119 | 22103 ft | 397 kts | 172° |
| 2026-04-23 22:30 | 33.05332 | -101.70238 | 22704 ft | 400 kts | 172° |
| 2026-04-23 22:31 | 33.02637 | -101.69350 | 23276 ft | 404 kts | 172° |
| 2026-04-23 22:31 | 32.99921 | -101.68455 | 23767 ft | 408 kts | 172° |
| 2026-04-23 22:31 | 32.97159 | -101.67546 | 24241 ft | 411 kts | 172° |
| 2026-04-23 22:31 | 32.94384 | -101.66632 | 24715 ft | 415 kts | 172° |
| 2026-04-23 22:32 | 32.91589 | -101.65713 | 25174 ft | 418 kts | 172° |
| 2026-04-23 22:32 | 32.88773 | -101.64788 | 25619 ft | 422 kts | 172° |
| 2026-04-23 22:32 | 32.85930 | -101.63852 | 26065 ft | 425 kts | 173° |
| 2026-04-23 22:32 | 32.83069 | -101.62913 | 26500 ft | 428 kts | 173° |
| 2026-04-23 22:33 | 32.80188 | -101.61968 | 26923 ft | 432 kts | 173° |
| 2026-04-23 22:33 | 32.77276 | -101.61014 | 27347 ft | 435 kts | 173° |
| 2026-04-23 22:33 | 32.74348 | -101.60053 | 27752 ft | 439 kts | 173° |
| 2026-04-23 22:33 | 32.71393 | -101.59081 | 28155 ft | 442 kts | 173° |
| 2026-04-23 22:34 | 32.68420 | -101.58105 | 28555 ft | 445 kts | 173° |
| 2026-04-23 22:34 | 32.65432 | -101.57127 | 28949 ft | 448 kts | 173° |
| 2026-04-23 22:34 | 32.62409 | -101.56142 | 29344 ft | 452 kts | 173° |
| 2026-04-23 22:34 | 32.59365 | -101.55151 | 29668 ft | 456 kts | 173° |
| 2026-04-23 22:35 | 32.56300 | -101.54157 | 29976 ft | 459 kts | 174° |
| 2026-04-23 22:35 | 32.53199 | -101.53148 | 30296 ft | 463 kts | 174° |
| 2026-04-23 22:35 | 32.50086 | -101.52134 | 30616 ft | 466 kts | 174° |
| 2026-04-23 22:35 | 32.46947 | -101.51109 | 30924 ft | 469 kts | 174° |
| 2026-04-23 22:36 | 32.43795 | -101.50080 | 31221 ft | 472 kts | 174° |
| 2026-04-23 22:36 | 32.40641 | -101.48831 | 31520 ft | 485 kts | 165° |
| 2026-04-23 22:36 | 32.37595 | -101.46965 | 31802 ft | 500 kts | 155° |
| 2026-04-23 22:36 | 32.34767 | -101.44491 | 32021 ft | 514 kts | 145° |
| 2026-04-23 22:37 | 32.32071 | -101.41691 | 32429 ft | 517 kts | 145° |
| 2026-04-23 22:37 | 32.29369 | -101.38888 | 32820 ft | 517 kts | 145° |
| 2026-04-23 22:37 | 32.26663 | -101.36089 | 33212 ft | 518 kts | 145° |
| 2026-04-23 22:37 | 32.23964 | -101.33307 | 33585 ft | 518 kts | 146° |
| 2026-04-23 22:38 | 32.21228 | -101.30497 | 33944 ft | 519 kts | 146° |
| 2026-04-23 22:38 | 32.18504 | -101.27704 | 34273 ft | 519 kts | 146° |
| 2026-04-23 22:38 | 32.15776 | -101.24908 | 34519 ft | 520 kts | 146° |
| 2026-04-23 22:38 | 32.13048 | -101.22110 | 34829 ft | 520 kts | 146° |
| 2026-04-23 22:39 | 32.10309 | -101.19307 | 35084 ft | 522 kts | 146° |
| 2026-04-23 22:39 | 32.07563 | -101.16502 | 35352 ft | 523 kts | 146° |
| 2026-04-23 22:39 | 32.04814 | -101.13694 | 35641 ft | 524 kts | 146° |
| 2026-04-23 22:39 | 32.02064 | -101.10877 | 35939 ft | 524 kts | 146° |
| 2026-04-23 22:40 | 31.99313 | -101.08056 | 36230 ft | 525 kts | 146° |
| 2026-04-23 22:40 | 31.96558 | -101.05231 | 36514 ft | 525 kts | 146° |
| 2026-04-23 22:40 | 31.91043 | -100.99604 | 37074 ft | 526 kts | 147° |
| 2026-04-23 22:41 | 31.88267 | -100.96784 | 37332 ft | 526 kts | 147° |
| 2026-04-23 22:41 | 31.86439 | -100.94928 | 37463 ft | 526 kts | 147° |
| 2026-04-23 22:41 | 31.83660 | -100.92106 | 37740 ft | 527 kts | 147° |
| 2026-04-23 22:41 | 31.80886 | -100.89292 | 38008 ft | 527 kts | 147° |
| 2026-04-23 22:42 | 31.78110 | -100.86474 | 38265 ft | 527 kts | 147° |
| 2026-04-23 22:42 | 31.75331 | -100.83654 | 38483 ft | 527 kts | 147° |
| 2026-04-23 22:42 | 31.72560 | -100.80845 | 38650 ft | 528 kts | 147° |
| 2026-04-23 22:43 | 31.67026 | -100.75234 | 38711 ft | 524 kts | 147° |
| 2026-04-23 22:43 | 31.61521 | -100.69646 | 38715 ft | 523 kts | 147° |
| 2026-04-23 22:44 | 31.56010 | -100.64091 | 38762 ft | 522 kts | 147° |
| 2026-04-23 22:44 | 31.50488 | -100.58540 | 38792 ft | 522 kts | 147° |
| 2026-04-23 22:45 | 31.44966 | -100.52987 | 38810 ft | 523 kts | 147° |
| 2026-04-23 22:45 | 31.39439 | -100.47439 | 38818 ft | 523 kts | 147° |
| 2026-04-23 22:46 | 31.33692 | -100.42333 | 38791 ft | 516 kts | 153° |
| 2026-04-23 22:46 | 31.27824 | -100.37493 | 38795 ft | 517 kts | 153° |
| 2026-04-23 22:47 | 31.21963 | -100.32649 | 38789 ft | 517 kts | 153° |
| 2026-04-23 22:47 | 31.16070 | -100.27791 | 38765 ft | 517 kts | 153° |